createdAt,value
2022-10-06T00:00:26.944Z,13.46
2022-10-06T00:01:27.002Z,13.47
2022-10-06T00:02:26.970Z,13.47
2022-10-06T00:03:26.908Z,13.47
2022-10-06T00:04:26.885Z,13.51
2022-10-06T00:05:26.886Z,13.52
2022-10-06T00:06:26.876Z,13.55
2022-10-06T00:07:26.846Z,13.61
2022-10-06T00:08:27.224Z,13.59
2022-10-06T00:09:26.816Z,13.61
2022-10-06T00:10:26.813Z,13.65
2022-10-06T00:11:26.815Z,13.62
2022-10-06T00:12:26.784Z,13.69
2022-10-06T00:13:26.769Z,13.73
2022-10-06T00:14:26.747Z,13.77
2022-10-06T00:15:26.857Z,13.73
2022-10-06T00:16:26.738Z,13.74
2022-10-06T00:17:26.719Z,13.73
2022-10-06T00:18:27.133Z,13.77
2022-10-06T00:19:26.688Z,13.73
2022-10-06T00:20:26.668Z,13.69
2022-10-06T00:21:26.679Z,13.69
2022-10-06T00:22:26.638Z,13.71
2022-10-06T00:23:26.640Z,13.74
2022-10-06T00:24:26.647Z,13.71
2022-10-06T00:25:26.617Z,13.67
2022-10-06T00:26:26.614Z,13.65
2022-10-06T00:27:26.609Z,13.71
2022-10-06T00:28:27.025Z,13.67
2022-10-06T00:29:26.554Z,13.69
2022-10-06T00:30:26.545Z,13.63
2022-10-06T00:31:26.575Z,13.70
2022-10-06T00:32:26.521Z,13.63
2022-10-06T00:33:26.501Z,13.63
2022-10-06T00:34:26.481Z,13.67
2022-10-06T00:35:26.470Z,13.65
2022-10-06T00:36:26.487Z,13.59
2022-10-06T00:37:26.461Z,13.59
2022-10-06T00:38:26.891Z,13.55
2022-10-06T00:39:26.413Z,13.56
2022-10-06T00:40:26.402Z,13.55
2022-10-06T00:41:26.392Z,13.54
2022-10-06T00:42:26.389Z,13.52
2022-10-06T00:43:26.362Z,13.51
2022-10-06T00:44:26.341Z,13.47
2022-10-06T00:45:26.332Z,13.49
2022-10-06T00:46:26.406Z,13.47
2022-10-06T00:47:26.329Z,13.46
2022-10-06T00:48:26.710Z,13.49
2022-10-06T00:49:26.280Z,13.43
2022-10-06T00:50:26.264Z,13.37
2022-10-06T00:51:26.253Z,13.37
2022-10-06T00:52:26.254Z,13.40
2022-10-06T00:53:26.223Z,13.41
2022-10-06T00:54:26.212Z,13.44
2022-10-06T00:55:26.204Z,13.40
2022-10-06T00:56:26.181Z,13.38
2022-10-06T00:57:26.186Z,13.37
2022-10-06T00:58:26.533Z,13.38
2022-10-06T00:59:26.146Z,13.36
2022-10-06T01:00:26.140Z,13.38
2022-10-06T01:01:26.148Z,13.33
2022-10-06T01:02:26.173Z,13.33
2022-10-06T01:03:26.092Z,13.29
2022-10-06T01:04:26.076Z,13.38
2022-10-06T01:05:26.069Z,13.33
2022-10-06T01:06:26.045Z,13.30
2022-10-06T01:07:26.047Z,13.29
2022-10-06T01:08:26.330Z,13.27
2022-10-06T01:09:26.005Z,13.24
2022-10-06T01:10:25.995Z,13.25
2022-10-06T01:11:25.976Z,13.25
2022-10-06T01:12:25.991Z,13.22
2022-10-06T01:13:25.946Z,13.24
2022-10-06T01:14:25.939Z,13.27
2022-10-06T01:15:25.936Z,13.21
2022-10-06T01:16:25.916Z,13.25
2022-10-06T01:17:25.897Z,13.22
2022-10-06T01:18:26.207Z,13.20
2022-10-06T01:19:25.867Z,13.20
2022-10-06T01:20:25.855Z,13.21
2022-10-06T01:21:25.869Z,13.20
2022-10-06T01:22:25.830Z,13.24
2022-10-06T01:23:25.817Z,13.24
2022-10-06T01:24:25.798Z,13.25
2022-10-06T01:25:25.797Z,13.27
2022-10-06T01:26:25.787Z,13.32
2022-10-06T01:27:25.768Z,13.27
2022-10-06T01:28:26.233Z,13.25
2022-10-06T01:29:25.742Z,13.29
2022-10-06T01:30:25.719Z,13.33
2022-10-06T01:31:25.756Z,13.33
2022-10-06T01:32:25.697Z,13.33
2022-10-06T01:33:25.679Z,13.32
2022-10-06T01:34:25.667Z,13.29
2022-10-06T01:35:25.660Z,13.25
2022-10-06T01:36:25.651Z,13.24
2022-10-06T01:37:25.629Z,13.25
2022-10-06T01:38:25.954Z,13.24
2022-10-06T01:39:25.604Z,13.24
2022-10-06T01:40:25.590Z,13.22
2022-10-06T01:41:25.597Z,13.22
2022-10-06T01:42:25.562Z,13.24
2022-10-06T01:43:25.549Z,13.21
2022-10-06T01:44:25.531Z,13.25
2022-10-06T01:45:25.521Z,13.24
2022-10-06T01:46:25.579Z,13.29
2022-10-06T01:47:25.491Z,13.27
2022-10-06T01:48:25.998Z,13.27
2022-10-06T01:49:25.471Z,13.22
2022-10-06T01:50:25.454Z,13.27
2022-10-06T01:51:25.453Z,13.24
2022-10-06T01:52:25.422Z,13.30
2022-10-06T01:53:25.412Z,13.30
2022-10-06T01:54:25.392Z,13.33
2022-10-06T01:55:25.382Z,13.41
2022-10-06T01:56:25.383Z,13.38
2022-10-06T01:57:25.360Z,13.37
2022-10-06T01:58:25.566Z,13.37
2022-10-06T01:59:25.324Z,13.43
2022-10-06T02:00:25.313Z,13.43
2022-10-06T02:01:25.400Z,13.43
2022-10-06T02:02:25.284Z,13.40
2022-10-06T02:03:25.274Z,13.38
2022-10-06T02:04:25.309Z,13.43
2022-10-06T02:05:25.252Z,13.47
2022-10-06T02:06:25.275Z,13.46
2022-10-06T02:07:25.223Z,13.44
2022-10-06T02:08:25.520Z,13.43
2022-10-06T02:09:25.197Z,13.44
2022-10-06T02:10:25.175Z,13.44
2022-10-06T02:11:25.183Z,13.41
2022-10-06T02:12:25.145Z,13.38
2022-10-06T02:13:25.136Z,13.37
2022-10-06T02:14:25.126Z,13.38
2022-10-06T02:15:25.125Z,13.38
2022-10-06T02:16:25.189Z,13.32
2022-10-06T02:17:25.086Z,13.38
2022-10-06T02:18:25.249Z,13.33
2022-10-06T02:19:25.057Z,13.36
2022-10-06T02:20:25.047Z,13.37
2022-10-06T02:21:25.056Z,13.41
2022-10-06T02:22:25.019Z,13.40
2022-10-06T02:23:25.007Z,13.37
2022-10-06T02:24:24.987Z,13.41
2022-10-06T02:25:24.985Z,13.44
2022-10-06T02:26:24.977Z,13.46
2022-10-06T02:27:24.951Z,13.47
2022-10-06T02:28:25.020Z,13.44
2022-10-06T02:29:24.917Z,13.46
2022-10-06T02:30:24.907Z,13.52
2022-10-06T02:31:24.996Z,13.51
2022-10-06T02:32:24.877Z,13.52
2022-10-06T02:33:24.871Z,13.54
2022-10-06T02:34:24.853Z,13.56
2022-10-06T02:35:24.841Z,13.54
2022-10-06T02:36:24.838Z,13.52
2022-10-06T02:37:24.819Z,13.55
2022-10-06T02:38:24.974Z,13.55
2022-10-06T02:39:24.789Z,13.52
2022-10-06T02:40:24.771Z,13.47
2022-10-06T02:41:24.790Z,13.46
2022-10-06T02:42:24.749Z,13.51
2022-10-06T02:43:24.730Z,13.41
2022-10-06T02:44:24.719Z,13.44
2022-10-06T02:45:24.711Z,13.38
2022-10-06T02:46:24.756Z,13.43
2022-10-06T02:47:24.682Z,13.40
2022-10-06T02:48:24.701Z,13.32
2022-10-06T02:49:24.661Z,13.32
2022-10-06T02:50:24.640Z,13.40
2022-10-06T02:51:24.648Z,13.33
2022-10-06T02:52:24.601Z,13.30
2022-10-06T02:53:24.601Z,13.32
2022-10-06T02:54:24.581Z,13.33
2022-10-06T02:55:24.582Z,13.32
2022-10-06T02:56:24.574Z,13.25
2022-10-06T02:57:24.543Z,13.30
2022-10-06T02:58:24.627Z,13.30
2022-10-06T02:59:24.520Z,13.27
2022-10-06T03:00:24.502Z,13.25
2022-10-06T03:01:24.573Z,13.27
2022-10-06T03:02:24.599Z,13.25
2022-10-06T03:03:24.463Z,13.22
2022-10-06T03:04:24.446Z,13.30
2022-10-06T03:05:24.440Z,13.22
2022-10-06T03:06:24.445Z,13.24
2022-10-06T03:07:24.403Z,13.14
2022-10-06T03:08:24.393Z,13.14
2022-10-06T03:09:24.394Z,13.11
2022-10-06T03:10:24.364Z,13.09
2022-10-06T03:11:24.354Z,13.09
2022-10-06T03:12:24.354Z,13.06
2022-10-06T03:13:24.572Z,13.06
2022-10-06T03:14:24.316Z,13.03
2022-10-06T03:15:24.305Z,13.03
2022-10-06T03:16:24.305Z,12.96
2022-10-06T03:17:24.293Z,12.95
2022-10-06T03:18:24.255Z,12.97
2022-10-06T03:19:24.250Z,12.95
2022-10-06T03:20:24.235Z,12.97
2022-10-06T03:21:24.216Z,12.97
2022-10-06T03:22:24.490Z,12.95
2022-10-06T03:23:24.194Z,12.93
2022-10-06T03:24:24.166Z,12.95
2022-10-06T03:25:24.167Z,12.89
2022-10-06T03:26:24.146Z,12.88
2022-10-06T03:27:24.157Z,12.84
2022-10-06T03:28:24.199Z,12.87
2022-10-06T03:29:24.106Z,12.84
2022-10-06T03:30:24.097Z,12.81
2022-10-06T03:31:24.123Z,12.82
2022-10-06T03:32:24.091Z,12.79
2022-10-06T03:33:24.056Z,12.78
2022-10-06T03:34:24.038Z,12.75
2022-10-06T03:35:24.028Z,12.75
2022-10-06T03:36:24.009Z,12.77
2022-10-06T03:37:24.020Z,12.74
2022-10-06T03:38:23.979Z,12.77
2022-10-06T03:39:23.978Z,12.77
2022-10-06T03:40:23.959Z,12.75
2022-10-06T03:42:33.830Z,12.71
2022-10-06T03:43:33.808Z,12.71
2022-10-06T03:44:33.790Z,12.70
2022-10-06T03:45:33.792Z,12.67
2022-10-06T03:46:33.807Z,12.69
2022-10-06T03:47:33.768Z,12.70
2022-10-06T03:48:33.749Z,12.67
2022-10-06T03:49:33.729Z,12.66
2022-10-06T03:50:33.709Z,12.62
2022-10-06T03:51:33.699Z,12.66
2022-10-06T03:52:33.692Z,12.63
2022-10-06T03:53:33.673Z,12.62
2022-10-06T03:54:33.652Z,12.62
2022-10-06T03:55:33.664Z,12.62
2022-10-06T03:56:33.623Z,12.60
2022-10-06T03:57:33.633Z,12.62
2022-10-06T03:58:33.592Z,12.62
2022-10-06T03:59:33.589Z,12.60
2022-10-06T04:00:33.595Z,12.60
2022-10-06T04:01:33.643Z,12.56
2022-10-06T04:02:33.563Z,12.52
2022-10-06T04:03:33.532Z,12.49
2022-10-06T04:04:33.515Z,12.48
2022-10-06T04:05:33.510Z,12.48
2022-10-06T04:06:33.485Z,12.45
2022-10-06T04:07:33.494Z,12.45
2022-10-06T04:08:33.660Z,12.45
2022-10-06T04:09:33.451Z,12.44
2022-10-06T04:10:33.435Z,12.45
2022-10-06T04:11:33.424Z,12.44
2022-10-06T04:12:33.414Z,12.41
2022-10-06T04:13:33.398Z,12.39
2022-10-06T04:14:33.374Z,12.44
2022-10-06T04:15:33.439Z,12.38
2022-10-06T04:16:33.447Z,12.38
2022-10-06T04:17:33.362Z,12.37
2022-10-06T04:18:33.325Z,12.37
2022-10-06T04:19:33.318Z,12.39
2022-10-06T04:20:33.297Z,12.44
2022-10-06T04:21:33.287Z,12.38
2022-10-06T04:22:33.289Z,12.33
2022-10-06T04:23:33.264Z,12.30
2022-10-06T04:24:33.246Z,12.27
2022-10-06T04:25:33.227Z,12.27
2022-10-06T04:26:33.215Z,12.29
2022-10-06T04:27:33.216Z,12.27
2022-10-06T04:28:33.748Z,12.23
2022-10-06T04:29:33.176Z,12.26
2022-10-06T04:30:33.157Z,12.23
2022-10-06T04:31:33.246Z,12.24
2022-10-06T04:32:33.146Z,12.19
2022-10-06T04:33:33.118Z,12.16
2022-10-06T04:34:33.106Z,12.13
2022-10-06T04:35:33.097Z,12.15
2022-10-06T04:36:33.079Z,12.19
2022-10-06T04:37:33.079Z,12.19
2022-10-06T04:38:33.347Z,12.13
2022-10-06T04:39:33.036Z,12.12
2022-10-06T04:40:33.027Z,12.11
2022-10-06T04:41:33.012Z,12.09
2022-10-06T04:42:35.286Z,12.08
2022-10-06T04:43:32.982Z,12.11
2022-10-06T04:44:32.979Z,12.08
2022-10-06T04:45:33.075Z,12.05
2022-10-06T04:46:48.500Z,12.05
2022-10-06T04:47:33.940Z,12.04
2022-10-06T04:48:32.923Z,11.99
2022-10-06T04:49:32.899Z,11.97
2022-10-06T04:50:32.890Z,12.04
2022-10-06T04:51:32.871Z,12.02
2022-10-06T04:52:32.879Z,12.01
2022-10-06T04:53:32.849Z,12.02
2022-10-06T04:54:33.920Z,12.05
2022-10-06T04:55:32.827Z,12.01
2022-10-06T04:56:32.803Z,12.04
2022-10-06T04:57:32.809Z,12.01
2022-10-06T04:58:32.900Z,11.99
2022-10-06T04:59:32.761Z,11.94
2022-10-06T05:00:32.763Z,11.97
2022-10-06T05:01:32.733Z,11.94
2022-10-06T05:02:32.797Z,11.93
2022-10-06T05:03:32.709Z,11.89
2022-10-06T05:04:32.703Z,11.87
2022-10-06T05:05:32.681Z,11.87
2022-10-06T05:06:32.692Z,11.86
2022-10-06T05:07:32.652Z,11.87
2022-10-06T05:08:32.924Z,11.86
2022-10-06T05:09:32.622Z,11.86
2022-10-06T05:10:32.622Z,11.82
2022-10-06T05:11:32.594Z,11.85
2022-10-06T05:12:32.603Z,11.83
2022-10-06T05:13:32.573Z,11.87
2022-10-06T05:14:32.562Z,11.85
2022-10-06T05:15:32.553Z,11.85
2022-10-06T05:16:32.578Z,11.83
2022-10-06T05:17:32.537Z,11.78
2022-10-06T05:18:32.548Z,11.82
2022-10-06T05:19:32.486Z,11.80
2022-10-06T05:20:32.473Z,11.78
2022-10-06T05:21:32.464Z,11.82
2022-10-06T05:22:32.464Z,11.78
2022-10-06T05:23:32.435Z,11.77
2022-10-06T05:24:32.426Z,11.72
2022-10-06T05:25:32.403Z,11.71
2022-10-06T05:26:32.396Z,11.74
2022-10-06T05:27:32.397Z,11.72
2022-10-06T05:28:33.010Z,11.74
2022-10-06T05:29:32.354Z,11.72
2022-10-06T05:30:32.341Z,11.72
2022-10-06T05:31:32.370Z,11.72
2022-10-06T05:32:35.944Z,11.72
2022-10-06T05:33:32.300Z,11.70
2022-10-06T05:34:32.286Z,11.70
2022-10-06T05:35:32.266Z,11.71
2022-10-06T05:36:32.255Z,11.67
2022-10-06T05:37:32.255Z,11.68
2022-10-06T05:38:32.621Z,11.70
2022-10-06T05:39:32.214Z,11.68
2022-10-06T05:40:32.206Z,11.68
2022-10-06T05:41:32.185Z,11.64
2022-10-06T05:42:32.196Z,11.65
2022-10-06T05:43:32.176Z,11.65
2022-10-06T05:44:32.146Z,11.64
2022-10-06T05:45:32.192Z,11.61
2022-10-06T05:46:32.138Z,11.59
2022-10-06T05:47:32.117Z,11.61
2022-10-06T05:48:32.481Z,11.61
2022-10-06T05:49:32.075Z,11.59
2022-10-06T05:50:32.072Z,11.59
2022-10-06T05:51:32.047Z,11.59
2022-10-06T05:52:32.056Z,11.59
2022-10-06T05:53:32.019Z,11.61
2022-10-06T05:54:32.009Z,11.61
2022-10-06T05:55:31.987Z,11.57
2022-10-06T05:56:31.988Z,11.56
2022-10-06T05:57:31.989Z,11.56
2022-10-06T05:58:32.184Z,11.52
2022-10-06T05:59:31.938Z,11.54
2022-10-06T06:00:31.933Z,11.52
2022-10-06T06:01:31.940Z,11.53
2022-10-06T06:02:31.991Z,11.56
2022-10-06T06:03:31.899Z,11.54
2022-10-06T06:04:31.869Z,11.54
2022-10-06T06:05:31.858Z,11.54
2022-10-06T06:06:31.848Z,11.54
2022-10-06T06:07:31.842Z,11.56
2022-10-06T06:08:32.279Z,11.57
2022-10-06T06:09:31.800Z,11.57
2022-10-06T06:10:31.789Z,11.56
2022-10-06T06:11:31.773Z,11.53
2022-10-06T06:12:31.781Z,11.52
2022-10-06T06:13:31.750Z,11.53
2022-10-06T06:14:31.739Z,11.54
2022-10-06T06:15:31.721Z,11.57
2022-10-06T06:16:31.755Z,11.57
2022-10-06T06:17:31.700Z,11.54
2022-10-06T06:18:32.033Z,11.57
2022-10-06T06:19:31.663Z,11.53
2022-10-06T06:20:31.659Z,11.56
2022-10-06T06:21:31.632Z,11.56
2022-10-06T06:22:31.649Z,11.57
2022-10-06T06:23:31.613Z,11.54
2022-10-06T06:24:31.600Z,11.54
2022-10-06T06:25:31.582Z,11.56
2022-10-06T06:26:31.575Z,11.56
2022-10-06T06:27:31.563Z,11.56
2022-10-06T06:28:31.908Z,11.54
2022-10-06T06:29:31.532Z,11.52
2022-10-06T06:30:31.512Z,11.52
2022-10-06T06:31:31.582Z,11.50
2022-10-06T06:32:31.515Z,11.54
2022-10-06T06:33:31.474Z,11.56
2022-10-06T06:34:31.463Z,11.59
2022-10-06T06:35:31.443Z,11.61
2022-10-06T06:36:31.443Z,11.62
2022-10-06T06:37:31.455Z,11.64
2022-10-06T06:38:31.929Z,11.62
2022-10-06T06:39:31.402Z,11.61
2022-10-06T06:40:31.374Z,11.62
2022-10-06T06:41:31.364Z,11.65
2022-10-06T06:42:31.375Z,11.59
2022-10-06T06:43:31.844Z,11.59
2022-10-06T06:44:31.324Z,11.61
2022-10-06T06:45:31.304Z,11.64
2022-10-06T06:46:31.486Z,11.65
2022-10-06T06:47:31.294Z,11.67
2022-10-06T06:48:31.778Z,11.68
2022-10-06T06:49:31.256Z,11.70
2022-10-06T06:50:31.250Z,11.71
2022-10-06T06:51:31.224Z,11.70
2022-10-06T06:52:31.235Z,11.72
2022-10-06T06:53:31.194Z,11.74
2022-10-06T06:54:31.186Z,11.75
2022-10-06T06:55:31.165Z,11.78
2022-10-06T06:56:31.157Z,11.80
2022-10-06T06:57:31.156Z,11.80
2022-10-06T06:58:31.646Z,11.82
2022-10-06T06:59:31.116Z,11.87
2022-10-06T07:00:35.899Z,11.87
2022-10-06T07:01:32.147Z,11.87
2022-10-06T07:02:31.132Z,11.90
2022-10-06T07:03:56.134Z,11.94
2022-10-06T07:04:32.054Z,11.94
2022-10-06T07:05:31.034Z,11.96
2022-10-06T07:06:31.040Z,11.96
2022-10-06T07:07:31.017Z,11.96
2022-10-06T07:08:31.438Z,12.01
2022-10-06T07:09:30.977Z,12.04
2022-10-06T07:10:30.967Z,12.09
2022-10-06T07:11:30.958Z,12.12
2022-10-06T07:12:30.936Z,12.09
2022-10-06T07:13:30.919Z,12.16
2022-10-06T07:14:30.927Z,12.15
2022-10-06T07:15:30.915Z,12.21
2022-10-06T07:16:30.917Z,12.24
2022-10-06T07:17:30.868Z,12.24
2022-10-06T07:18:31.360Z,12.24
2022-10-06T07:19:30.839Z,12.24
2022-10-06T07:20:30.828Z,12.24
2022-10-06T07:21:30.833Z,12.27
2022-10-06T07:22:30.799Z,12.27
2022-10-06T07:23:30.788Z,12.33
2022-10-06T07:24:30.779Z,12.38
2022-10-06T07:25:30.789Z,12.34
2022-10-06T07:26:30.770Z,12.38
2022-10-06T07:27:30.730Z,12.42
2022-10-06T07:28:30.867Z,12.44
2022-10-06T07:29:30.709Z,12.42
2022-10-06T07:30:30.690Z,12.48
2022-10-06T07:31:30.740Z,12.45
2022-10-06T07:32:30.683Z,12.49
2022-10-06T07:33:30.650Z,12.52
2022-10-06T07:34:30.674Z,12.52
2022-10-06T07:35:30.621Z,12.60
2022-10-06T07:36:30.612Z,12.62
2022-10-06T07:37:30.611Z,12.63
2022-10-06T07:38:30.592Z,12.66
2022-10-06T07:39:30.581Z,12.69
2022-10-06T07:40:30.551Z,12.70
2022-10-06T07:41:30.543Z,12.74
2022-10-06T07:42:30.551Z,12.75
2022-10-06T07:43:30.513Z,12.78
2022-10-06T07:44:30.502Z,12.81
2022-10-06T07:45:30.523Z,12.85
2022-10-06T07:46:30.482Z,12.93
2022-10-06T07:47:30.473Z,12.89
2022-10-06T07:48:30.453Z,12.95
2022-10-06T07:49:30.434Z,12.95
2022-10-06T07:50:30.423Z,12.99
2022-10-06T07:51:30.403Z,13.02
2022-10-06T07:52:30.416Z,13.04
2022-10-06T07:53:30.379Z,13.09
2022-10-06T07:54:30.371Z,13.12
2022-10-06T07:55:30.353Z,13.15
2022-10-06T07:56:30.346Z,13.20
2022-10-06T07:57:30.342Z,13.22
2022-10-06T07:58:30.314Z,13.25
2022-10-06T07:59:30.297Z,13.30
2022-10-06T08:00:30.337Z,13.40
2022-10-06T08:01:30.328Z,13.36
2022-10-06T08:02:33.079Z,13.37
2022-10-06T08:03:31.248Z,13.37
2022-10-06T08:04:30.237Z,13.36
2022-10-06T08:05:30.215Z,13.37
2022-10-06T08:06:30.205Z,13.40
2022-10-06T08:07:30.206Z,13.43
2022-10-06T08:08:30.206Z,13.43
2022-10-06T08:09:30.155Z,13.54
2022-10-06T08:10:30.148Z,13.54
2022-10-06T08:11:30.136Z,13.59
2022-10-06T08:12:30.136Z,13.59
2022-10-06T08:13:30.107Z,13.62
2022-10-06T08:14:30.096Z,13.65
2022-10-06T08:15:30.077Z,13.62
2022-10-06T08:16:30.364Z,13.63
2022-10-06T08:17:30.057Z,13.69
2022-10-06T08:18:47.027Z,13.73
2022-10-06T08:19:31.027Z,13.76
2022-10-06T08:20:30.018Z,13.73
2022-10-06T08:21:29.999Z,13.74
2022-10-06T08:22:30.012Z,13.84
2022-10-06T08:23:29.967Z,13.87
2022-10-06T08:24:37.844Z,13.88
2022-10-06T08:25:30.941Z,13.87
2022-10-06T08:26:29.939Z,13.94
2022-10-06T08:27:29.928Z,13.95
2022-10-06T08:28:29.982Z,13.99
2022-10-06T08:29:29.889Z,14.02
2022-10-06T08:30:29.878Z,14.12
2022-10-06T08:31:29.928Z,14.09
2022-10-06T08:32:29.881Z,14.10
2022-10-06T08:33:29.829Z,14.12
2022-10-06T08:34:29.820Z,14.16
2022-10-06T08:35:29.811Z,14.12
2022-10-06T08:36:32.363Z,14.09
2022-10-06T08:37:29.814Z,14.13
2022-10-06T08:38:29.770Z,14.14
2022-10-06T08:39:29.751Z,14.20
2022-10-06T08:40:29.740Z,14.21
2022-10-06T08:41:29.723Z,14.24
2022-10-06T08:42:29.730Z,14.21
2022-10-06T08:43:29.700Z,14.28
2022-10-06T08:44:29.692Z,14.34
2022-10-06T08:45:29.685Z,14.37
2022-10-06T08:46:29.659Z,14.43
2022-10-06T08:47:29.733Z,14.38
2022-10-06T08:48:29.631Z,14.43
2022-10-06T08:49:29.620Z,14.42
2022-10-06T08:50:29.606Z,14.47
2022-10-06T08:51:29.592Z,14.49
2022-10-06T08:52:29.592Z,14.54
2022-10-06T08:53:29.570Z,14.57
2022-10-06T08:54:29.550Z,14.54
2022-10-06T08:55:29.540Z,14.56
2022-10-06T08:56:29.523Z,14.56
2022-10-06T08:57:29.531Z,14.60
2022-10-06T08:58:29.494Z,14.57
2022-10-06T08:59:29.485Z,14.60
2022-10-06T09:00:29.474Z,14.62
2022-10-06T09:01:29.517Z,14.68
2022-10-06T09:02:29.641Z,14.67
2022-10-06T09:03:29.432Z,14.69
2022-10-06T09:04:29.414Z,14.78
2022-10-06T09:05:29.404Z,14.78
2022-10-06T09:06:29.385Z,14.80
2022-10-06T09:07:29.394Z,14.81
2022-10-06T09:08:29.365Z,14.90
2022-10-06T09:09:29.346Z,14.90
2022-10-06T09:10:29.338Z,14.87
2022-10-06T09:11:29.316Z,14.93
2022-10-06T09:12:29.317Z,14.98
2022-10-06T09:13:29.295Z,15.01
2022-10-06T09:14:29.276Z,15.08
2022-10-06T09:15:29.267Z,15.09
2022-10-06T09:16:29.276Z,15.11
2022-10-06T09:17:29.256Z,15.09
2022-10-06T09:18:49.024Z,15.06
2022-10-06T09:19:33.615Z,15.02
2022-10-06T09:20:29.197Z,15.03
2022-10-06T09:21:29.188Z,15.02
2022-10-06T09:22:29.190Z,15.01
2022-10-06T09:23:29.159Z,15.03
2022-10-06T09:24:29.139Z,15.02
2022-10-06T09:25:29.132Z,15.08
2022-10-06T09:26:29.146Z,15.13
2022-10-06T09:27:29.119Z,15.20
2022-10-06T09:28:29.173Z,15.23
2022-10-06T09:29:29.079Z,15.26
2022-10-06T09:30:29.061Z,15.30
2022-10-06T09:31:29.145Z,15.30
2022-10-06T09:32:29.049Z,15.35
2022-10-06T09:33:29.028Z,15.39
2022-10-06T09:34:29.007Z,15.38
2022-10-06T09:35:28.991Z,15.42
2022-10-06T09:36:28.981Z,15.43
2022-10-06T09:37:28.988Z,15.45
2022-10-06T09:38:28.951Z,15.46
2022-10-06T09:39:28.940Z,15.52
2022-10-06T09:40:28.930Z,15.54
2022-10-06T09:42:27.227Z,15.68
2022-10-06T09:43:27.180Z,15.68
2022-10-06T09:44:27.259Z,15.66
2022-10-06T09:45:27.156Z,15.74
2022-10-06T09:46:27.471Z,15.67
2022-10-06T09:47:27.145Z,15.68
2022-10-06T09:48:27.123Z,15.68
2022-10-06T09:49:27.101Z,15.68
2022-10-06T09:50:27.089Z,15.64
2022-10-06T09:51:27.068Z,15.66
2022-10-06T09:52:27.080Z,15.68
2022-10-06T09:53:27.042Z,15.79
2022-10-06T09:54:27.036Z,15.79
2022-10-06T09:55:27.017Z,15.81
2022-10-06T09:56:27.060Z,15.84
2022-10-06T09:57:27.009Z,15.88
2022-10-06T09:58:26.981Z,15.86
2022-10-06T09:59:26.968Z,15.92
2022-10-06T10:00:26.955Z,15.94
2022-10-06T10:01:26.994Z,15.92
2022-10-06T10:02:26.971Z,15.86
2022-10-06T10:03:26.914Z,15.81
2022-10-06T10:04:26.900Z,15.82
2022-10-06T10:05:26.881Z,15.78
2022-10-06T10:06:26.871Z,15.79
2022-10-06T10:07:26.873Z,15.88
2022-10-06T10:08:26.874Z,15.97
2022-10-06T10:09:26.830Z,16.03
2022-10-06T10:10:26.823Z,16.07
2022-10-06T10:11:26.804Z,16.11
2022-10-06T10:12:26.823Z,16.16
2022-10-06T10:13:26.781Z,16.20
2022-10-06T10:14:26.762Z,16.20
2022-10-06T10:15:26.744Z,16.27
2022-10-06T10:16:26.815Z,16.30
2022-10-06T10:17:26.734Z,16.33
2022-10-06T10:18:26.778Z,16.40
2022-10-06T10:19:26.694Z,16.48
2022-10-06T10:20:26.684Z,16.44
2022-10-06T10:21:26.664Z,16.40
2022-10-06T10:22:26.675Z,16.40
2022-10-06T10:23:31.147Z,16.42
2022-10-06T10:24:27.624Z,16.35
2022-10-06T10:25:26.606Z,16.40
2022-10-06T10:26:26.595Z,16.38
2022-10-06T10:27:26.604Z,16.40
2022-10-06T10:28:26.625Z,16.45
2022-10-06T10:29:29.307Z,16.48
2022-10-06T10:30:27.546Z,16.53
2022-10-06T10:31:26.600Z,16.59
2022-10-06T10:32:26.536Z,16.63
2022-10-06T10:33:26.657Z,16.58
2022-10-06T10:34:26.494Z,16.60
2022-10-06T10:35:26.478Z,16.63
2022-10-06T10:36:26.489Z,16.65
2022-10-06T10:37:26.450Z,16.63
2022-10-06T10:38:26.438Z,16.68
2022-10-06T10:39:26.421Z,16.68
2022-10-06T10:40:26.409Z,16.65
2022-10-06T10:41:26.398Z,16.53
2022-10-06T10:42:26.409Z,16.50
2022-10-06T10:43:26.369Z,16.50
2022-10-06T10:44:26.359Z,16.49
2022-10-06T10:45:26.349Z,16.52
2022-10-06T10:46:26.431Z,16.56
2022-10-06T10:47:26.330Z,16.55
2022-10-06T10:48:26.300Z,16.60
2022-10-06T10:49:26.290Z,16.60
2022-10-06T10:50:26.270Z,16.65
2022-10-06T10:51:26.268Z,16.74
2022-10-06T10:52:26.261Z,16.77
2022-10-06T10:53:26.240Z,16.88
2022-10-06T10:54:26.218Z,17.13
2022-10-06T10:55:26.210Z,17.51
2022-10-06T10:56:26.193Z,17.82
2022-10-06T10:57:26.193Z,18.61
2022-10-06T10:58:26.164Z,18.91
2022-10-06T10:59:26.153Z,19.23
2022-10-06T11:00:26.161Z,19.43
2022-10-06T11:01:26.132Z,20.23
2022-10-06T11:02:26.133Z,20.96
2022-10-06T11:03:26.103Z,21.36
2022-10-06T11:04:26.083Z,21.67
2022-10-06T11:05:28.297Z,21.69
2022-10-06T11:06:26.054Z,22.04
2022-10-06T11:07:26.054Z,22.22
2022-10-06T11:08:26.035Z,22.67
2022-10-06T11:09:26.015Z,23.12
2022-10-06T11:10:26.105Z,22.82
2022-10-06T11:11:25.996Z,22.02
2022-10-06T11:12:25.986Z,21.81
2022-10-06T11:13:25.961Z,22.20
2022-10-06T11:14:25.946Z,22.65
2022-10-06T11:15:25.937Z,23.12
2022-10-06T11:16:25.995Z,23.71
2022-10-06T11:17:25.908Z,24.00
2022-10-06T11:18:25.897Z,24.14
2022-10-06T11:19:25.879Z,24.42
2022-10-06T11:20:25.859Z,24.41
2022-10-06T11:21:25.868Z,23.58
2022-10-06T11:22:25.840Z,23.39
2022-10-06T11:23:25.829Z,23.82
2022-10-06T11:24:25.811Z,23.45
2022-10-06T11:25:25.809Z,22.57
2022-10-06T11:26:25.801Z,22.64
2022-10-06T11:27:25.775Z,22.94
2022-10-06T11:28:25.816Z,23.19
2022-10-06T11:29:25.752Z,23.52
2022-10-06T11:30:25.733Z,23.98
2022-10-06T11:31:25.773Z,23.83
2022-10-06T11:32:25.705Z,23.50
2022-10-06T11:33:25.697Z,23.32
2022-10-06T11:34:25.685Z,23.55
2022-10-06T11:35:25.676Z,24.02
2022-10-06T11:36:25.673Z,24.02
2022-10-06T11:37:25.646Z,23.98
2022-10-06T11:38:25.633Z,23.98
2022-10-06T11:39:25.627Z,23.87
2022-10-06T11:40:25.597Z,24.02
2022-10-06T11:41:25.621Z,23.71
2022-10-06T11:42:25.636Z,24.01
2022-10-06T11:43:25.568Z,24.08
2022-10-06T11:44:25.550Z,24.45
2022-10-06T11:45:25.541Z,24.35
2022-10-06T11:46:29.672Z,24.47
2022-10-06T11:47:35.177Z,24.42
2022-10-06T11:48:26.501Z,24.53
2022-10-06T11:49:25.493Z,24.04
2022-10-06T11:50:25.478Z,24.02
2022-10-06T11:51:25.477Z,23.94
2022-10-06T11:52:25.462Z,23.64
2022-10-06T11:53:25.444Z,23.72
2022-10-06T11:54:25.423Z,23.70
2022-10-06T11:55:25.414Z,23.90
2022-10-06T11:56:25.403Z,24.35
2022-10-06T11:57:30.667Z,24.37
2022-10-06T11:58:42.756Z,24.53
2022-10-06T11:59:26.365Z,24.52
2022-10-06T12:00:25.347Z,24.50
2022-10-06T12:01:25.335Z,24.87
2022-10-06T12:02:25.489Z,24.67
2022-10-06T12:03:25.354Z,23.47
2022-10-06T12:04:25.297Z,23.11
2022-10-06T12:06:26.288Z,21.92
2022-10-06T12:07:25.269Z,22.17
2022-10-06T12:08:25.248Z,22.57
2022-10-06T12:09:25.241Z,22.75
2022-10-06T12:10:25.219Z,22.59
2022-10-06T12:11:25.231Z,21.98
2022-10-06T12:12:25.198Z,21.14
2022-10-06T12:14:26.650Z,20.84
2022-10-06T12:16:00.197Z,21.34
2022-10-06T12:17:26.132Z,20.99
2022-10-06T12:18:25.115Z,21.13
2022-10-06T12:19:25.120Z,21.45
2022-10-06T12:20:25.093Z,21.34
2022-10-06T12:21:25.106Z,21.08
2022-10-06T12:22:25.075Z,21.11
2022-10-06T12:23:25.055Z,21.19
2022-10-06T12:24:25.046Z,21.23
2022-10-06T12:25:25.061Z,20.59
2022-10-06T12:26:25.035Z,20.51
2022-10-06T12:27:26.054Z,20.71
2022-10-06T12:28:25.027Z,20.53
2022-10-06T12:29:24.988Z,20.46
2022-10-06T12:30:24.981Z,20.16
2022-10-06T12:31:25.017Z,20.21
2022-10-06T12:32:24.939Z,20.15
2022-10-06T12:33:24.929Z,19.84
2022-10-06T12:34:24.916Z,19.47
2022-10-06T12:35:24.938Z,19.24
2022-10-06T12:36:24.910Z,19.08
2022-10-06T12:37:24.889Z,18.98
2022-10-06T12:38:24.861Z,19.06
2022-10-06T12:39:24.878Z,19.20
2022-10-06T12:40:24.835Z,19.33
2022-10-06T12:41:24.831Z,19.33
2022-10-06T12:42:24.833Z,19.46
2022-10-06T12:43:24.801Z,19.48
2022-10-06T12:44:24.802Z,19.50
2022-10-06T12:45:24.784Z,19.57
2022-10-06T12:46:24.797Z,19.43
2022-10-06T12:47:24.773Z,19.29
2022-10-06T12:48:24.725Z,19.20
2022-10-06T12:49:24.723Z,19.08
2022-10-06T12:50:24.710Z,19.08
2022-10-06T12:51:24.750Z,19.01
2022-10-06T12:52:24.676Z,19.02
2022-10-06T12:53:24.667Z,18.99
2022-10-06T12:54:24.648Z,19.10
2022-10-06T12:55:24.638Z,19.11
2022-10-06T12:56:24.637Z,18.90
2022-10-06T12:57:24.609Z,18.82